Frankston, Victoria

5:11 PM AEDT on December 25, 2014 (GMT +1100)
Suburbia | Change Station
CLOSE
Current Station
Personal Weather Station
Location: Frankston South, VIC
Elevation: 190 ft
Nearby Weather Stations

Elev 190 ft 38.16 °S, 145.12 °E | Updated 1 second ago

Scattered Clouds
Scattered Clouds
76.7 °F
Feels Like 78 °F
N
2.2
Wind Variable Wind from ESE
Gusts 3.5 mph

Today
High -- | Low -- °F
--% Chance of Precip.
Yesterday
High -- | Low -- °F
Precip. -- in
5:54 AM 8:43 PM
Waxing Crescent, 14% visible
Pressure 29.74 in
Visibility 6.2 miles
Clouds Scattered Clouds 8200 ft
Heat Index 78 °F
Dew Point 54 °F
Humidity 45%
Rainfall 0.00 in
Snow Depth Not available.
UV 1.4 out of 12
Pollen Not available.
Air Quality Not available.
Flu Activity Not available.
METAR YMEN 250600Z AUTO 18014KT 9999 // SCT082 22/11 Q1007

More Conditions Fewer Conditions

Pressure 29.74 in
Visibility 6.2 miles
Clouds Scattered Clouds 8200 ft
Heat Index 78 °F
Dew Point 54 °F
Humidity 45%
Rainfall 0.00 in
Snow Depth Not available.
UV 1.4 out of 12
Pollen Not available.
Air Quality Not available.
Flu Activity Not available.
METAR YMEN 250600Z AUTO 18014KT 9999 // SCT082 22/11 Q1007

More Conditions Fewer Conditions

10-Day Weather Forecast

Almanac

Astronomy

Dec. 25, 2014 Rise Set
Actual Time
Civil Twilight
Nautical Twilight
Astronomical Twilight
Moon
Length of Visible Light
Length of Day
Tomorrow will be .
, % of the Moon is Illuminated

Today's Extremes

Country Highs Country Lows

Community

WunderPhotos

Upload Photos

1,780,248 photos uploaded!

WunderBlogs® & News

Nearby

Air Quality

  Air Quality AQ Index Pollutant
Not available.

Snow Depth

Station Depth Elevation

Earthquake Activity

City Distance Mag. Time & Date
Minimum magnitude displayed is 2.5.

Coastal Water Temperatures

Place Temperature

Nearby Weather Stations